createdAt,value
2017-08-31T00:00:22.428Z,19.96
2017-08-31T00:01:22.423Z,19.95
2017-08-31T00:02:22.418Z,20.01
2017-08-31T00:03:22.416Z,19.92
2017-08-31T00:04:22.420Z,19.99
2017-08-31T00:05:22.409Z,19.95
2017-08-31T00:06:22.412Z,19.91
2017-08-31T00:07:22.405Z,19.86
2017-08-31T00:08:22.404Z,19.91
2017-08-31T00:09:22.397Z,19.92
2017-08-31T00:10:22.395Z,19.86
2017-08-31T00:11:22.392Z,19.94
2017-08-31T00:12:22.389Z,19.83
2017-08-31T00:13:22.386Z,19.88
2017-08-31T00:14:22.432Z,19.95
2017-08-31T00:15:22.381Z,19.91
2017-08-31T00:16:22.378Z,19.91
2017-08-31T00:17:22.373Z,19.92
2017-08-31T00:18:22.370Z,19.92
2017-08-31T00:19:22.368Z,19.91
2017-08-31T00:20:22.365Z,19.87
2017-08-31T00:21:22.359Z,19.88
2017-08-31T00:22:22.359Z,19.84
2017-08-31T00:23:22.354Z,19.86
2017-08-31T00:24:22.353Z,19.86
2017-08-31T00:25:22.353Z,19.80
2017-08-31T00:26:22.396Z,19.83
2017-08-31T00:27:22.342Z,19.81
2017-08-31T00:28:22.339Z,19.83
2017-08-31T00:29:22.336Z,19.77
2017-08-31T00:30:22.333Z,19.80
2017-08-31T00:31:22.330Z,19.80
2017-08-31T00:32:22.628Z,19.76
2017-08-31T00:33:22.323Z,19.80
2017-08-31T00:34:22.321Z,19.88
2017-08-31T00:35:22.316Z,19.83
2017-08-31T00:36:22.315Z,19.84
2017-08-31T00:37:22.359Z,19.83
2017-08-31T00:38:22.362Z,19.83
2017-08-31T00:39:22.321Z,19.83
2017-08-31T00:40:22.304Z,19.74
2017-08-31T00:41:22.299Z,19.83
2017-08-31T00:42:22.295Z,19.76
2017-08-31T00:43:22.341Z,19.71
2017-08-31T00:44:22.288Z,19.78
2017-08-31T00:45:22.286Z,19.78
2017-08-31T00:46:22.282Z,19.77
2017-08-31T00:47:22.280Z,19.76
2017-08-31T00:48:22.327Z,19.80
2017-08-31T00:49:22.275Z,19.77
2017-08-31T00:50:22.270Z,19.74
2017-08-31T00:51:22.267Z,19.76
2017-08-31T00:52:22.267Z,19.78
2017-08-31T00:53:22.311Z,19.77
2017-08-31T00:54:22.258Z,19.66
2017-08-31T00:55:22.253Z,19.71
2017-08-31T00:56:22.253Z,19.68
2017-08-31T00:57:22.248Z,19.66
2017-08-31T00:58:22.295Z,19.78
2017-08-31T00:59:22.293Z,19.74
2017-08-31T01:00:22.241Z,19.74
2017-08-31T01:01:22.236Z,19.63
2017-08-31T01:02:22.233Z,19.65
2017-08-31T01:03:22.230Z,19.76
2017-08-31T01:04:22.276Z,19.65
2017-08-31T01:05:22.223Z,19.63
2017-08-31T01:06:22.217Z,19.66
2017-08-31T01:07:22.218Z,19.66
2017-08-31T01:08:22.214Z,19.76
2017-08-31T01:09:22.258Z,19.66
2017-08-31T01:10:22.207Z,19.71
2017-08-31T01:11:22.202Z,19.76
2017-08-31T01:12:22.201Z,19.80
2017-08-31T01:13:22.196Z,19.78
2017-08-31T01:14:22.194Z,19.77
2017-08-31T01:15:22.188Z,19.78
2017-08-31T01:16:22.187Z,19.66
2017-08-31T01:17:22.183Z,19.65
2017-08-31T01:18:22.181Z,19.66
2017-08-31T01:19:22.177Z,19.66
2017-08-31T01:20:22.176Z,19.63
2017-08-31T01:21:22.220Z,19.65
2017-08-31T01:22:22.168Z,19.69
2017-08-31T01:23:22.169Z,19.66
2017-08-31T01:24:22.162Z,19.62
2017-08-31T01:25:22.157Z,19.55
2017-08-31T01:26:22.210Z,19.59
2017-08-31T01:27:22.202Z,19.51
2017-08-31T01:28:22.148Z,19.59
2017-08-31T01:29:22.144Z,19.50
2017-08-31T01:30:22.140Z,19.37
2017-08-31T01:31:22.188Z,19.43
2017-08-31T01:32:22.132Z,19.43
2017-08-31T01:33:22.128Z,19.36
2017-08-31T01:34:22.127Z,19.25
2017-08-31T01:35:22.124Z,19.28
2017-08-31T01:36:22.120Z,19.32
2017-08-31T01:37:22.116Z,19.31
2017-08-31T01:38:22.165Z,19.29
2017-08-31T01:39:22.110Z,19.37
2017-08-31T01:40:22.106Z,19.37
2017-08-31T01:41:22.103Z,19.29
2017-08-31T01:42:22.100Z,19.37
2017-08-31T01:43:22.094Z,19.43
2017-08-31T01:44:22.093Z,19.41
2017-08-31T01:45:22.087Z,19.43
2017-08-31T01:46:22.087Z,19.39
2017-08-31T01:47:22.080Z,19.47
2017-08-31T01:48:22.079Z,19.44
2017-08-31T01:49:22.074Z,19.43
2017-08-31T01:50:22.069Z,19.41
2017-08-31T01:51:22.068Z,19.43
2017-08-31T01:52:22.065Z,19.43
2017-08-31T01:53:22.059Z,19.43
2017-08-31T01:54:22.056Z,19.43
2017-08-31T01:55:22.054Z,19.39
2017-08-31T01:56:22.050Z,19.41
2017-08-31T01:57:22.047Z,19.40
2017-08-31T01:58:22.043Z,19.43
2017-08-31T01:59:22.088Z,19.46
2017-08-31T02:00:22.039Z,19.43
2017-08-31T02:01:22.031Z,19.40
2017-08-31T02:02:22.028Z,19.37
2017-08-31T02:03:22.026Z,19.37
2017-08-31T02:04:22.072Z,19.29
2017-08-31T02:05:22.018Z,19.31
2017-08-31T02:06:22.015Z,19.32
2017-08-31T02:07:22.012Z,19.33
2017-08-31T02:08:22.009Z,19.29
2017-08-31T02:09:22.052Z,19.48
2017-08-31T02:10:21.999Z,19.28
2017-08-31T02:11:21.996Z,19.25
2017-08-31T02:12:21.994Z,19.23
2017-08-31T02:13:22.040Z,19.22
2017-08-31T02:14:21.984Z,19.21
2017-08-31T02:15:21.981Z,19.21
2017-08-31T02:16:21.979Z,19.28
2017-08-31T02:17:21.975Z,19.22
2017-08-31T02:18:21.970Z,19.28
2017-08-31T02:19:21.969Z,19.19
2017-08-31T02:20:21.966Z,19.26
2017-08-31T02:21:21.962Z,19.16
2017-08-31T02:22:21.962Z,19.26
2017-08-31T02:23:21.955Z,19.21
2017-08-31T02:24:21.951Z,19.18
2017-08-31T02:25:21.946Z,19.25
2017-08-31T02:26:21.943Z,19.26
2017-08-31T02:27:21.943Z,19.28
2017-08-31T02:28:21.938Z,19.26
2017-08-31T02:29:21.981Z,19.25
2017-08-31T02:30:21.931Z,19.29
2017-08-31T02:31:21.927Z,19.29
2017-08-31T02:32:21.924Z,19.28
2017-08-31T02:33:21.918Z,19.22
2017-08-31T02:34:21.915Z,19.23
2017-08-31T02:35:21.912Z,19.22
2017-08-31T02:36:21.907Z,19.21
2017-08-31T02:37:21.904Z,19.19
2017-08-31T02:38:21.899Z,19.19
2017-08-31T02:39:21.895Z,19.18
2017-08-31T02:40:21.944Z,19.25
2017-08-31T02:41:21.889Z,19.16
2017-08-31T02:42:21.884Z,19.16
2017-08-31T02:43:21.888Z,19.29
2017-08-31T02:44:21.879Z,19.16
2017-08-31T02:45:21.926Z,19.19
2017-08-31T02:46:21.875Z,19.22
2017-08-31T02:47:21.870Z,19.21
2017-08-31T02:48:21.867Z,19.16
2017-08-31T02:49:21.860Z,19.14
2017-08-31T02:50:21.856Z,19.23
2017-08-31T02:51:21.857Z,19.18
2017-08-31T02:52:21.852Z,19.18
2017-08-31T02:53:21.897Z,19.10
2017-08-31T02:54:21.843Z,19.06
2017-08-31T02:55:21.838Z,19.02
2017-08-31T02:56:21.836Z,19.02
2017-08-31T02:57:21.829Z,19.02
2017-08-31T02:58:21.828Z,19.06
2017-08-31T02:59:21.824Z,19.04
2017-08-31T03:00:21.820Z,18.99
2017-08-31T03:01:21.818Z,19.02
2017-08-31T03:02:21.814Z,18.99
2017-08-31T03:03:21.808Z,19.02
2017-08-31T03:04:21.807Z,19.00
2017-08-31T03:05:21.803Z,19.00
2017-08-31T03:06:21.799Z,18.94
2017-08-31T03:07:21.794Z,18.99
2017-08-31T03:08:21.790Z,18.99
2017-08-31T03:09:21.786Z,18.95
2017-08-31T03:10:21.784Z,19.00
2017-08-31T03:11:21.779Z,19.04
2017-08-31T03:12:21.828Z,18.99
2017-08-31T03:13:21.773Z,18.95
2017-08-31T03:14:21.767Z,19.04
2017-08-31T03:15:21.765Z,18.99
2017-08-31T03:16:21.762Z,18.99
2017-08-31T03:17:21.809Z,18.94
2017-08-31T03:18:21.753Z,18.87
2017-08-31T03:19:21.748Z,18.90
2017-08-31T03:20:21.745Z,18.87
2017-08-31T03:21:21.740Z,18.85
2017-08-31T03:22:21.791Z,18.84
2017-08-31T03:23:21.733Z,18.87
2017-08-31T03:24:21.732Z,18.90
2017-08-31T03:25:21.728Z,18.87
2017-08-31T03:26:21.721Z,18.87
2017-08-31T03:27:21.721Z,18.90
2017-08-31T03:28:21.717Z,18.87
2017-08-31T03:29:21.713Z,18.85
2017-08-31T03:30:21.709Z,18.85
2017-08-31T03:31:21.704Z,18.90
2017-08-31T03:32:21.699Z,18.87
2017-08-31T03:33:21.694Z,18.84
2017-08-31T03:34:21.693Z,18.84
2017-08-31T03:35:21.687Z,18.88
2017-08-31T03:36:21.684Z,18.82
2017-08-31T03:37:21.680Z,18.84
2017-08-31T03:38:21.675Z,18.87
2017-08-31T03:39:21.677Z,18.81
2017-08-31T03:40:21.670Z,18.80
2017-08-31T03:41:21.664Z,18.80
2017-08-31T03:42:21.662Z,18.81
2017-08-31T03:43:21.656Z,18.81
2017-08-31T03:44:21.655Z,18.82
2017-08-31T03:45:21.650Z,18.72
2017-08-31T03:46:21.646Z,18.75
2017-08-31T03:47:21.643Z,18.76
2017-08-31T03:48:21.641Z,18.73
2017-08-31T03:49:21.634Z,18.73
2017-08-31T03:50:21.630Z,18.72
2017-08-31T03:51:21.933Z,18.70
2017-08-31T03:52:21.623Z,18.76
2017-08-31T03:53:21.618Z,18.70
2017-08-31T03:54:21.614Z,18.70
2017-08-31T03:55:21.609Z,18.69
2017-08-31T03:56:21.906Z,18.73
2017-08-31T03:57:21.601Z,18.67
2017-08-31T03:58:21.766Z,18.76
2017-08-31T03:59:21.593Z,18.73
2017-08-31T04:00:21.596Z,18.76
2017-08-31T04:01:21.633Z,18.72
2017-08-31T04:02:21.581Z,18.66
2017-08-31T04:03:21.576Z,18.72
2017-08-31T04:04:21.571Z,18.75
2017-08-31T04:05:21.569Z,18.69
2017-08-31T04:06:21.589Z,18.65
2017-08-31T04:07:21.610Z,18.66
2017-08-31T04:08:21.556Z,18.66
2017-08-31T04:09:21.602Z,18.72
2017-08-31T04:10:21.551Z,18.70
2017-08-31T04:11:21.546Z,18.70
2017-08-31T04:12:21.539Z,18.70
2017-08-31T04:13:21.536Z,18.65
2017-08-31T04:14:21.582Z,18.69
2017-08-31T04:15:21.525Z,18.69
2017-08-31T04:16:21.522Z,18.73
2017-08-31T04:17:21.517Z,18.75
2017-08-31T04:18:21.515Z,18.73
2017-08-31T04:19:21.560Z,18.69
2017-08-31T04:20:21.507Z,18.72
2017-08-31T04:21:21.503Z,18.70
2017-08-31T04:22:21.499Z,18.76
2017-08-31T04:23:21.544Z,18.72
2017-08-31T04:24:21.488Z,18.80
2017-08-31T04:25:21.536Z,18.76
2017-08-31T04:26:21.480Z,18.72
2017-08-31T04:27:21.476Z,18.75
2017-08-31T04:28:21.522Z,18.66
2017-08-31T04:29:21.467Z,18.72
2017-08-31T04:30:21.463Z,18.65
2017-08-31T04:31:21.462Z,18.70
2017-08-31T04:32:21.457Z,18.67
2017-08-31T04:33:21.500Z,18.69
2017-08-31T04:34:21.446Z,18.70
2017-08-31T04:35:21.444Z,18.67
2017-08-31T04:36:21.439Z,18.75
2017-08-31T04:37:21.435Z,18.65
2017-08-31T04:38:21.482Z,18.70
2017-08-31T04:39:21.429Z,18.62
2017-08-31T04:40:21.424Z,18.70
2017-08-31T04:41:21.421Z,18.66
2017-08-31T04:42:21.414Z,18.58
2017-08-31T04:43:21.412Z,18.57
2017-08-31T04:44:21.406Z,18.65
2017-08-31T04:45:21.427Z,18.58
2017-08-31T04:46:21.401Z,18.54
2017-08-31T04:47:21.761Z,18.52
2017-08-31T04:48:21.392Z,18.58
2017-08-31T04:49:21.385Z,18.51
2017-08-31T04:50:21.383Z,18.55
2017-08-31T04:51:21.378Z,18.55
2017-08-31T04:52:21.376Z,18.62
2017-08-31T04:53:21.370Z,18.60
2017-08-31T04:54:21.366Z,18.66
2017-08-31T04:55:21.363Z,18.66
2017-08-31T04:56:21.357Z,18.65
2017-08-31T04:57:21.362Z,18.69
2017-08-31T04:58:21.348Z,18.65
2017-08-31T04:59:21.346Z,18.69
2017-08-31T05:00:21.343Z,18.72
2017-08-31T05:01:21.388Z,18.76
2017-08-31T05:02:21.334Z,18.73
2017-08-31T05:03:21.330Z,18.73
2017-08-31T05:04:21.325Z,18.73
2017-08-31T05:05:21.321Z,18.70
2017-08-31T05:06:21.316Z,18.80
2017-08-31T05:07:21.316Z,18.82
2017-08-31T05:08:21.309Z,18.81
2017-08-31T05:09:21.305Z,18.78
2017-08-31T05:10:21.302Z,18.81
2017-08-31T05:11:21.297Z,18.76
2017-08-31T05:12:21.293Z,18.80
2017-08-31T05:13:21.287Z,18.78
2017-08-31T05:14:21.285Z,18.75
2017-08-31T05:15:21.280Z,18.78
2017-08-31T05:16:21.276Z,18.67
2017-08-31T05:17:21.270Z,18.70
2017-08-31T05:18:21.266Z,18.66
2017-08-31T05:19:21.262Z,18.62
2017-08-31T05:20:21.310Z,18.51
2017-08-31T05:21:21.255Z,18.42
2017-08-31T05:22:21.301Z,18.36
2017-08-31T05:23:21.249Z,18.33
2017-08-31T05:24:21.243Z,18.27
2017-08-31T05:25:21.239Z,18.26
2017-08-31T05:26:21.234Z,18.20
2017-08-31T05:27:21.278Z,18.14
2017-08-31T05:28:21.243Z,18.11
2017-08-31T05:29:21.219Z,18.10
2017-08-31T05:30:21.217Z,17.99
2017-08-31T05:31:21.211Z,18.05
2017-08-31T05:32:21.259Z,17.99
2017-08-31T05:33:21.203Z,17.97
2017-08-31T05:34:21.198Z,17.95
2017-08-31T05:35:21.194Z,17.99
2017-08-31T05:36:21.189Z,17.97
2017-08-31T05:37:21.236Z,17.93
2017-08-31T05:38:21.181Z,17.97
2017-08-31T05:39:21.176Z,17.92
2017-08-31T05:40:21.173Z,17.96
2017-08-31T05:41:21.166Z,17.99
2017-08-31T05:42:21.162Z,17.99
2017-08-31T05:43:21.157Z,18.00
2017-08-31T05:44:21.205Z,17.93
2017-08-31T05:45:21.148Z,17.99
2017-08-31T05:46:21.145Z,18.05
2017-08-31T05:47:21.141Z,18.08
2017-08-31T05:48:21.134Z,17.99
2017-08-31T05:49:21.131Z,18.07
2017-08-31T05:50:21.132Z,18.02
2017-08-31T05:51:21.121Z,17.99
2017-08-31T05:52:21.168Z,18.08
2017-08-31T05:53:21.112Z,18.02
2017-08-31T05:54:21.159Z,17.95
2017-08-31T05:55:21.103Z,18.03
2017-08-31T05:56:21.097Z,17.89
2017-08-31T05:57:21.092Z,17.97
2017-08-31T05:58:21.137Z,17.97
2017-08-31T05:59:21.085Z,18.00
2017-08-31T07:32:12.152Z,18.95
2017-08-31T07:33:12.091Z,18.94
2017-08-31T07:34:12.076Z,18.88
2017-08-31T07:36:12.058Z,18.90
2017-08-31T07:37:12.052Z,19.07
2017-08-31T07:38:12.042Z,19.11
2017-08-31T07:40:12.081Z,19.29
2017-08-31T07:41:12.020Z,19.21
2017-08-31T07:42:12.013Z,19.25
2017-08-31T07:44:12.002Z,19.33
2017-08-31T07:45:12.045Z,19.41
2017-08-31T07:46:11.991Z,19.36
2017-08-31T07:48:11.977Z,19.55
2017-08-31T07:49:11.974Z,19.58
2017-08-31T07:50:12.018Z,19.61
2017-08-31T07:52:12.010Z,19.65
2017-08-31T07:53:11.954Z,19.61
2017-08-31T07:54:11.952Z,19.37
2017-08-31T07:56:11.940Z,19.43
2017-08-31T07:57:12.002Z,19.41
2017-08-31T07:58:11.980Z,19.29
2017-08-31T08:00:11.923Z,19.47
2017-08-31T08:01:11.918Z,19.54
2017-08-31T08:02:11.964Z,19.46
2017-08-31T08:04:11.908Z,19.69
2017-08-31T08:05:11.913Z,19.66
2017-08-31T08:06:11.898Z,19.77
2017-08-31T08:08:11.891Z,19.80
2017-08-31T08:09:11.887Z,19.83
2017-08-31T08:10:11.884Z,19.81
2017-08-31T08:12:11.876Z,19.88
2017-08-31T08:13:11.874Z,19.91
2017-08-31T08:14:11.869Z,19.94
2017-08-31T08:16:11.865Z,19.98
2017-08-31T08:17:11.861Z,20.03
2017-08-31T08:18:11.856Z,20.05
2017-08-31T08:20:11.901Z,20.10
2017-08-31T08:21:11.846Z,20.17
2017-08-31T08:22:11.843Z,20.24
2017-08-31T08:24:11.839Z,20.41
2017-08-31T08:25:11.886Z,20.48
2017-08-31T08:26:11.831Z,20.47
2017-08-31T08:28:11.825Z,20.47
2017-08-31T08:29:11.824Z,20.50
2017-08-31T08:30:11.871Z,20.52
2017-08-31T08:32:11.812Z,20.50
2017-08-31T08:33:11.812Z,20.51
2017-08-31T08:34:11.807Z,20.51
2017-08-31T08:36:11.851Z,20.57
2017-08-31T08:37:11.802Z,20.52
2017-08-31T08:38:11.796Z,20.55
2017-08-31T08:40:11.792Z,20.55
2017-08-31T08:41:11.788Z,20.57
2017-08-31T08:42:11.784Z,20.61
2017-08-31T08:44:11.786Z,20.74
2017-08-31T08:45:11.780Z,20.92
2017-08-31T08:46:11.776Z,20.94
2017-08-31T08:47:11.773Z,21.04
2017-08-31T08:48:11.819Z,21.10
2017-08-31T08:49:11.767Z,21.22
2017-08-31T08:50:11.816Z,21.29
2017-08-31T08:51:11.764Z,21.21
2017-08-31T08:52:11.765Z,21.25
2017-08-31T08:53:11.761Z,21.25
2017-08-31T08:54:11.754Z,21.35
2017-08-31T08:55:11.751Z,21.35
2017-08-31T08:56:11.752Z,21.35
2017-08-31T08:57:11.753Z,21.43
2017-08-31T08:58:11.744Z,21.42
2017-08-31T08:59:11.742Z,21.46
2017-08-31T09:00:11.791Z,21.56
2017-08-31T09:01:11.737Z,21.58
2017-08-31T09:02:11.786Z,21.59
2017-08-31T09:03:11.743Z,21.61
2017-08-31T09:04:11.734Z,21.62
2017-08-31T09:05:11.781Z,21.61
2017-08-31T09:06:11.729Z,21.54
2017-08-31T09:07:11.775Z,21.72
2017-08-31T09:08:11.724Z,21.58
2017-08-31T09:09:11.722Z,21.65
2017-08-31T09:10:11.719Z,21.68
2017-08-31T09:11:11.721Z,21.52
2017-08-31T09:12:11.716Z,21.67
2017-08-31T09:13:11.713Z,21.67
2017-08-31T09:14:11.712Z,21.59
2017-08-31T09:15:11.710Z,21.62
2017-08-31T09:16:11.759Z,21.68
2017-08-31T09:17:11.705Z,21.64
2017-08-31T09:18:11.702Z,21.67
2017-08-31T09:19:11.700Z,21.67
2017-08-31T09:20:11.700Z,21.67
2017-08-31T09:21:11.747Z,21.72
2017-08-31T09:22:11.701Z,21.64
2017-08-31T09:23:11.693Z,21.54
2017-08-31T09:24:11.693Z,21.56
2017-08-31T09:25:11.692Z,21.54
2017-08-31T09:26:11.686Z,21.49
2017-08-31T09:27:11.734Z,21.46
2017-08-31T09:28:11.683Z,21.40
2017-08-31T09:29:11.682Z,21.42
2017-08-31T09:30:11.680Z,21.38
2017-08-31T09:31:11.678Z,21.37
2017-08-31T09:32:11.674Z,21.19
2017-08-31T09:33:11.725Z,21.13
2017-08-31T09:34:11.673Z,21.19
2017-08-31T09:35:11.669Z,21.10
2017-08-31T09:36:11.666Z,20.94
2017-08-31T09:37:11.666Z,20.88
2017-08-31T09:38:11.713Z,20.85
2017-08-31T09:39:11.658Z,20.76
2017-08-31T09:40:11.656Z,20.66
2017-08-31T09:41:11.656Z,20.66
2017-08-31T09:42:11.652Z,20.59
2017-08-31T09:43:11.702Z,20.57
2017-08-31T09:44:11.649Z,20.43
2017-08-31T09:45:11.644Z,20.39
2017-08-31T09:46:11.641Z,20.28
2017-08-31T09:47:11.642Z,20.23
2017-08-31T09:48:11.639Z,20.26
2017-08-31T09:49:11.685Z,20.21
2017-08-31T09:50:11.681Z,20.29
2017-08-31T09:51:11.629Z,20.35
2017-08-31T09:52:11.626Z,20.35
2017-08-31T09:53:11.626Z,20.36
2017-08-31T09:54:11.619Z,20.39
2017-08-31T09:55:11.669Z,20.33
2017-08-31T09:56:11.616Z,20.42
2017-08-31T09:57:11.611Z,20.38
2017-08-31T09:58:11.609Z,20.43
2017-08-31T09:59:11.608Z,20.47
2017-08-31T10:00:11.604Z,20.52
2017-08-31T10:01:11.600Z,20.52
2017-08-31T10:02:11.599Z,20.59
2017-08-31T10:03:11.596Z,20.55
2017-08-31T10:04:11.593Z,20.52
2017-08-31T10:05:11.590Z,20.50
2017-08-31T10:06:11.588Z,20.54
2017-08-31T10:07:11.584Z,20.43
2017-08-31T10:08:11.582Z,20.43
2017-08-31T10:09:11.578Z,20.47
2017-08-31T10:10:11.577Z,20.42
2017-08-31T10:11:11.572Z,20.43
2017-08-31T10:12:11.569Z,20.51
2017-08-31T10:13:11.566Z,20.52
2017-08-31T10:14:11.563Z,20.43
2017-08-31T10:15:11.560Z,20.50
2017-08-31T10:16:11.609Z,20.47
2017-08-31T10:17:11.558Z,20.43
2017-08-31T10:18:11.555Z,20.51
2017-08-31T10:19:11.551Z,20.50
2017-08-31T10:20:11.548Z,20.54
2017-08-31T10:21:11.595Z,20.59
2017-08-31T10:22:11.593Z,20.62
2017-08-31T10:23:11.542Z,20.62
2017-08-31T10:24:11.540Z,20.66
2017-08-31T10:25:11.537Z,20.72
2017-08-31T10:26:11.532Z,20.66
2017-08-31T10:27:11.579Z,20.67
2017-08-31T10:28:11.527Z,20.72
2017-08-31T10:29:11.526Z,20.74
2017-08-31T10:30:11.523Z,20.77
2017-08-31T10:31:11.519Z,20.67
2017-08-31T10:32:11.516Z,20.74
2017-08-31T10:33:11.564Z,20.85
2017-08-31T10:34:11.542Z,20.74
2017-08-31T10:35:11.510Z,20.76
2017-08-31T10:36:11.509Z,20.74
2017-08-31T10:37:11.505Z,20.66
2017-08-31T10:38:11.550Z,20.59
2017-08-31T10:39:11.498Z,20.59
2017-08-31T10:40:11.545Z,20.58
2017-08-31T10:41:11.492Z,20.67
2017-08-31T10:42:11.488Z,20.67
2017-08-31T10:43:11.487Z,20.79
2017-08-31T10:44:11.486Z,20.82
2017-08-31T10:45:11.532Z,20.79
2017-08-31T10:46:11.479Z,20.98
2017-08-31T10:47:11.478Z,20.92
2017-08-31T10:48:11.476Z,21.04
2017-08-31T10:49:11.470Z,21.13
2017-08-31T10:50:11.470Z,21.19
2017-08-31T10:51:11.518Z,21.27
2017-08-31T10:52:11.465Z,21.29
2017-08-31T10:53:11.461Z,21.28
2017-08-31T10:54:11.460Z,21.22
2017-08-31T10:55:11.459Z,21.27
2017-08-31T10:56:11.455Z,21.37
2017-08-31T10:57:11.455Z,21.38
2017-08-31T10:58:11.506Z,21.58
2017-08-31T10:59:11.446Z,21.53
2017-08-31T11:00:11.446Z,21.53
2017-08-31T11:01:11.442Z,21.61
2017-08-31T11:02:11.440Z,21.42
2017-08-31T11:03:11.489Z,21.38
2017-08-31T11:04:11.437Z,21.34
2017-08-31T11:05:11.435Z,21.42
2017-08-31T11:06:11.480Z,21.40
2017-08-31T11:07:11.427Z,21.47
2017-08-31T11:08:11.482Z,21.42
2017-08-31T11:09:11.429Z,21.38
2017-08-31T11:10:11.421Z,21.27
2017-08-31T11:11:11.568Z,21.12
2017-08-31T11:12:11.415Z,21.01
2017-08-31T11:13:11.466Z,20.95
2017-08-31T11:14:11.412Z,20.92
2017-08-31T11:15:11.409Z,20.97
2017-08-31T11:16:11.408Z,20.84
2017-08-31T11:17:11.406Z,20.73
2017-08-31T11:18:11.602Z,20.69
2017-08-31T11:19:11.398Z,20.58
2017-08-31T11:20:11.448Z,20.24
2017-08-31T11:21:11.396Z,20.29
2017-08-31T11:22:11.392Z,20.33
2017-08-31T11:23:11.389Z,20.33
2017-08-31T11:24:11.435Z,20.33
2017-08-31T11:25:11.383Z,20.50
2017-08-31T11:26:11.380Z,20.39
2017-08-31T11:27:11.398Z,20.47
2017-08-31T11:28:11.403Z,20.41
2017-08-31T11:29:11.493Z,20.32
2017-08-31T11:30:11.437Z,20.28
2017-08-31T11:31:11.492Z,20.39
2017-08-31T11:32:11.483Z,20.36
2017-08-31T11:33:11.487Z,20.52
2017-08-31T11:34:11.420Z,20.57
2017-08-31T11:35:11.458Z,20.61
2017-08-31T11:36:11.416Z,20.69
2017-08-31T11:37:11.414Z,20.66
2017-08-31T11:38:11.349Z,20.77
2017-08-31T11:39:11.346Z,20.77
2017-08-31T11:40:11.393Z,20.76
2017-08-31T11:41:11.346Z,20.76
2017-08-31T11:42:11.338Z,20.70
2017-08-31T11:43:11.335Z,20.61
2017-08-31T11:44:11.332Z,20.64
2017-08-31T11:45:11.378Z,20.59
2017-08-31T11:46:11.325Z,20.54
2017-08-31T11:47:11.329Z,20.48
2017-08-31T11:48:11.319Z,20.52
2017-08-31T11:49:11.319Z,20.55
2017-08-31T11:50:11.364Z,20.57
2017-08-31T11:51:11.312Z,20.67
2017-08-31T11:52:11.311Z,20.69
2017-08-31T11:53:11.306Z,20.92
2017-08-31T11:54:11.305Z,20.95
2017-08-31T11:55:11.350Z,20.92
2017-08-31T11:56:11.298Z,21.12
2017-08-31T11:57:11.296Z,21.27
2017-08-31T11:58:11.293Z,21.32
2017-08-31T11:59:11.288Z,21.27
2017-08-31T12:00:11.288Z,21.27
2017-08-31T12:01:11.335Z,21.27
2017-08-31T12:02:11.281Z,21.35
2017-08-31T12:03:11.281Z,21.42
2017-08-31T12:04:11.278Z,21.49
2017-08-31T12:05:11.277Z,21.52
2017-08-31T12:06:11.321Z,21.59
2017-08-31T12:07:11.270Z,21.43
2017-08-31T12:08:11.269Z,21.17
2017-08-31T12:09:11.264Z,21.06
2017-08-31T12:10:11.261Z,20.77
2017-08-31T12:11:11.259Z,20.70
2017-08-31T12:12:11.256Z,20.54
2017-08-31T12:13:11.254Z,20.43
2017-08-31T12:14:11.450Z,20.32
2017-08-31T12:15:11.248Z,20.29
2017-08-31T12:16:11.247Z,20.24
2017-08-31T12:17:11.245Z,20.36
2017-08-31T12:18:11.241Z,20.39
2017-08-31T12:19:11.238Z,20.59
2017-08-31T12:20:11.234Z,20.73
2017-08-31T12:21:11.233Z,20.85
2017-08-31T12:22:11.228Z,20.98
2017-08-31T12:23:11.227Z,20.98
2017-08-31T12:24:11.225Z,21.12
2017-08-31T12:25:11.222Z,21.07
2017-08-31T12:26:11.217Z,21.19
2017-08-31T12:27:11.215Z,21.13
2017-08-31T12:28:11.211Z,21.25
2017-08-31T12:29:11.209Z,21.40
2017-08-31T12:30:11.208Z,21.35
2017-08-31T12:31:11.253Z,21.28
2017-08-31T12:32:11.206Z,21.14
2017-08-31T12:33:11.198Z,20.89
2017-08-31T12:34:11.199Z,20.66
2017-08-31T12:35:11.194Z,20.38
2017-08-31T12:36:11.242Z,20.33
2017-08-31T12:37:11.187Z,20.23
2017-08-31T12:38:11.185Z,20.11
2017-08-31T12:39:11.183Z,20.17
2017-08-31T12:40:11.180Z,20.03
2017-08-31T12:41:11.228Z,20.01
2017-08-31T12:42:11.322Z,20.03
2017-08-31T12:43:11.171Z,20.03
2017-08-31T12:44:11.168Z,20.03
2017-08-31T12:45:11.164Z,20.14
2017-08-31T12:46:11.160Z,20.10
2017-08-31T12:47:11.159Z,20.17
2017-08-31T12:48:11.160Z,20.05
2017-08-31T12:49:11.152Z,20.01
2017-08-31T12:50:11.302Z,19.84
2017-08-31T12:51:11.148Z,19.80
2017-08-31T12:52:11.157Z,19.55
2017-08-31T12:53:11.139Z,19.44
2017-08-31T12:54:11.135Z,19.32
2017-08-31T12:55:11.189Z,19.21
2017-08-31T12:56:11.178Z,19.16
2017-08-31T12:57:11.129Z,19.25
2017-08-31T12:58:11.122Z,19.11
2017-08-31T12:59:11.119Z,19.04
2017-08-31T13:00:11.115Z,18.99
2017-08-31T13:01:11.163Z,18.92
2017-08-31T13:02:11.109Z,18.84
2017-08-31T13:03:11.104Z,18.78
2017-08-31T13:04:11.102Z,18.52
2017-08-31T13:05:11.097Z,18.41
2017-08-31T13:06:11.191Z,18.18
2017-08-31T13:07:11.088Z,18.25
2017-08-31T13:08:11.083Z,18.18
2017-08-31T13:09:11.082Z,18.21
2017-08-31T13:10:11.227Z,18.18
2017-08-31T13:11:11.070Z,18.23
2017-08-31T13:12:11.069Z,18.27
2017-08-31T13:13:11.115Z,18.30
2017-08-31T13:14:11.057Z,18.30
2017-08-31T13:15:11.053Z,18.18
2017-08-31T13:16:11.049Z,18.05
2017-08-31T13:17:11.051Z,17.97
2017-08-31T13:18:11.091Z,18.00
2017-08-31T13:19:11.042Z,17.92
2017-08-31T13:20:11.033Z,17.86
2017-08-31T13:21:11.027Z,17.86
2017-08-31T13:22:11.024Z,17.79
2017-08-31T13:23:11.070Z,17.58
2017-08-31T13:24:11.020Z,17.58
2017-08-31T13:25:11.010Z,17.59
2017-08-31T13:26:11.005Z,17.46
2017-08-31T13:27:11.001Z,17.56
2017-08-31T13:28:11.047Z,17.48
2017-08-31T13:29:10.991Z,17.59
2017-08-31T13:30:10.987Z,17.54
2017-08-31T13:31:10.982Z,17.63
2017-08-31T13:32:10.977Z,17.64
2017-08-31T13:33:10.975Z,17.55
2017-08-31T13:34:10.971Z,17.49
2017-08-31T13:35:11.115Z,17.33
2017-08-31T13:36:10.960Z,17.28
2017-08-31T13:37:10.956Z,17.26
2017-08-31T13:38:10.951Z,17.30
2017-08-31T13:39:10.947Z,17.52
2017-08-31T13:40:10.943Z,17.46
2017-08-31T13:41:10.938Z,17.55
2017-08-31T13:42:11.030Z,17.51
2017-08-31T13:43:10.925Z,17.51
2017-08-31T13:44:10.921Z,17.33
2017-08-31T13:45:10.918Z,17.30
2017-08-31T13:46:10.911Z,17.26
2017-08-31T13:47:10.908Z,17.31
2017-08-31T13:48:10.951Z,17.31
2017-08-31T13:49:10.898Z,17.49
2017-08-31T13:50:10.893Z,17.41
2017-08-31T13:51:10.926Z,17.54
2017-08-31T13:52:10.884Z,17.56
2017-08-31T13:53:10.931Z,17.56
2017-08-31T13:54:10.874Z,17.59
2017-08-31T13:55:10.867Z,17.55
2017-08-31T13:56:10.863Z,17.64
2017-08-31T13:57:10.860Z,17.66
2017-08-31T13:58:10.901Z,17.72
2017-08-31T13:59:10.849Z,17.74
2017-08-31T14:00:10.844Z,17.74
2017-08-31T14:01:10.840Z,17.72
2017-08-31T14:02:10.834Z,17.77
2017-08-31T14:03:10.978Z,17.70
2017-08-31T14:04:10.823Z,17.52
2017-08-31T14:05:10.819Z,17.58
2017-08-31T14:06:10.816Z,17.48
2017-08-31T14:07:10.810Z,17.56
2017-08-31T14:08:10.853Z,17.44
2017-08-31T14:09:10.801Z,17.33
2017-08-31T14:10:10.797Z,17.23
2017-08-31T14:11:10.789Z,17.06
2017-08-31T14:12:10.786Z,17.01
2017-08-31T14:13:10.830Z,16.97
2017-08-31T14:14:10.776Z,16.81
2017-08-31T14:15:10.770Z,16.75
2017-08-31T14:16:10.764Z,16.68
2017-08-31T14:17:10.758Z,16.70
2017-08-31T14:18:10.753Z,16.63
2017-08-31T14:19:10.747Z,16.66
2017-08-31T14:20:10.792Z,16.63
2017-08-31T14:21:10.736Z,16.60
2017-08-31T14:22:10.733Z,16.61
2017-08-31T14:23:10.727Z,16.58
2017-08-31T14:24:10.723Z,16.58
2017-08-31T14:25:10.719Z,16.63
2017-08-31T14:26:10.710Z,16.56
2017-08-31T14:27:10.705Z,16.67
2017-08-31T14:28:10.698Z,16.70
2017-08-31T14:29:10.694Z,16.81
2017-08-31T14:30:10.689Z,16.85
2017-08-31T14:31:10.684Z,16.79
2017-08-31T14:32:10.677Z,16.85
2017-08-31T14:33:10.674Z,16.97
2017-08-31T14:34:10.668Z,16.88
2017-08-31T14:35:10.663Z,16.89
2017-08-31T14:36:10.657Z,16.89
2017-08-31T14:37:10.700Z,16.68
2017-08-31T14:38:10.697Z,16.53
2017-08-31T14:39:10.640Z,16.41
2017-08-31T14:40:10.634Z,16.28
2017-08-31T14:41:10.631Z,16.11
2017-08-31T14:42:10.624Z,16.08